Time;durP1;ratioP1;P1;durP2;ratioP2;P2;SDS_P1;SDS_P2;PMS_P1;PMS_P2;Temp;Humidity;BMP_temperature;BMP_pressure;BME280_temperature;BME280_humidity;BME280_pressure;Samples;Min_cycle;Max_cycle;Signal;HPM_P1;HPM_P2
2023/12/10 00:00:47;;;;;;;2.95;1.00;;;;;;;4.56;100.00;96667.56;6100034;19;20333;-72
2023/12/10 00:02:47;;;;;;;2.58;1.25;;;;;;;4.68;100.00;96667.25;6101574;19;20010;-72
2023/12/10 00:04:48;;;;;;;1.73;1.08;;;;;;;4.71;100.00;96676.63;6100710;19;20058;-72
2023/12/10 00:06:48;;;;;;;2.47;1.00;;;;;;;4.78;100.00;96666.50;6100658;19;20014;-71
2023/12/10 00:08:49;;;;;;;1.70;1.10;;;;;;;4.75;100.00;96680.19;6099949;19;20269;-72
2023/12/10 00:10:49;;;;;;;3.20;1.10;;;;;;;4.82;100.00;96687.69;6101237;19;20378;-71
2023/12/10 00:12:50;;;;;;;3.53;1.27;;;;;;;4.83;100.00;96687.28;6100700;19;20003;-72
2023/12/10 00:14:54;;;;;;;2.20;1.08;;;;;;;4.83;100.00;96700.19;6100206;19;20007;-71
2023/12/10 00:16:54;;;;;;;1.90;1.20;;;;;;;4.92;100.00;96695.94;6100429;19;20013;-71
2023/12/10 00:18:54;;;;;;;3.15;1.50;;;;;;;4.96;100.00;96710.44;6099425;19;20015;-72
2023/12/10 00:20:55;;;;;;;1.15;1.05;;;;;;;4.93;100.00;96707.69;6100378;19;20021;-72
2023/12/10 00:22:55;;;;;;;1.33;1.00;;;;;;;4.95;100.00;96714.34;6100445;19;20014;-71
2023/12/10 00:24:55;;;;;;;2.72;1.60;;;;;;;5.04;100.00;96724.97;6100310;19;20006;-72
2023/12/10 00:26:56;;;;;;;8.15;3.10;;;;;;;5.12;100.00;96729.31;6099817;19;20002;-72
2023/12/10 00:28:56;;;;;;;3.38;1.70;;;;;;;5.20;100.00;96730.91;6099643;19;20027;-71
2023/12/10 00:30:56;;;;;;;3.13;2.22;;;;;;;5.16;100.00;96729.34;6100098;19;20003;-72
2023/12/10 00:32:57;;;;;;;4.07;1.85;;;;;;;5.14;100.00;96739.91;6099623;19;20011;-72
2023/12/10 00:34:57;;;;;;;1.85;1.20;;;;;;;5.15;100.00;96742.25;6099371;19;20020;-72
2023/12/10 00:36:57;;;;;;;1.42;1.10;;;;;;;5.18;100.00;96757.94;6100872;19;20368;-72
2023/12/10 00:38:59;;;;;;;2.13;1.17;;;;;;;5.26;100.00;96759.53;6099507;19;20006;-72
2023/12/10 00:41:00;;;;;;;2.03;1.35;;;;;;;5.19;100.00;96758.72;6100218;19;20015;-72
2023/12/10 00:43:00;;;;;;;2.65;1.38;;;;;;;5.07;100.00;96774.34;6099725;19;20361;-72
2023/12/10 00:45:00;;;;;;;3.00;1.70;;;;;;;5.06;100.00;96766.50;6100319;19;20393;-72
2023/12/10 00:47:01;;;;;;;3.17;1.70;;;;;;;5.02;100.00;96774.69;6099552;19;20026;-72
2023/12/10 00:49:01;;;;;;;2.63;2.08;;;;;;;5.00;100.00;96785.25;6098832;19;20428;-72
2023/12/10 00:51:02;;;;;;;1.83;1.42;;;;;;;4.99;100.00;96788.38;6100088;19;20089;-72
2023/12/10 00:53:05;;;;;;;2.72;1.40;;;;;;;4.96;100.00;96780.91;6100186;19;20034;-72
2023/12/10 00:55:05;;;;;;;1.58;1.20;;;;;;;5.01;100.00;96795.03;6098651;19;20009;-72
2023/12/10 00:57:06;;;;;;;1.10;0.90;;;;;;;4.95;100.00;96799.31;6099046;19;20011;-72
2023/12/10 00:59:06;;;;;;;2.13;1.00;;;;;;;4.84;100.00;96789.47;6099523;19;20497;-72
2023/12/10 01:01:08;;;;;;;1.25;1.00;;;;;;;4.78;100.00;96784.31;6099892;19;20055;-72
2023/12/10 01:03:09;;;;;;;1.40;1.17;;;;;;;4.82;100.00;96789.06;6100034;19;20054;-72
2023/12/10 01:05:09;;;;;;;1.90;1.52;;;;;;;4.80;100.00;96786.69;6100041;19;20423;-72
2023/12/10 01:07:11;;;;;;;2.45;1.50;;;;;;;4.78;100.00;96789.78;6104372;19;20460;-71
2023/12/10 01:09:11;;;;;;;2.00;1.40;;;;;;;4.78;100.00;96798.03;6105406;19;20463;-72
2023/12/10 01:11:12;;;;;;;2.22;1.52;;;;;;;4.77;100.00;96801.16;6106145;19;20014;-72
2023/12/10 01:13:12;;;;;;;4.43;1.60;;;;;;;4.78;100.00;96806.25;6106436;19;20006;-72
2023/12/10 01:15:12;;;;;;;1.95;1.30;;;;;;;4.84;100.00;96816.84;6104644;19;20002;-72
2023/12/10 01:17:13;;;;;;;3.17;1.60;;;;;;;4.81;100.00;96823.09;6105121;19;20007;-72
2023/12/10 01:19:13;;;;;;;2.50;1.40;;;;;;;4.83;100.00;96826.25;6104531;19;20354;-72
2023/12/10 01:21:14;;;;;;;2.67;1.75;;;;;;;4.84;100.00;96825.88;6106364;19;20006;-72
2023/12/10 01:23:14;;;;;;;4.72;1.90;;;;;;;4.87;100.00;96822.34;6104756;19;20020;-72
2023/12/10 01:25:15;;;;;;;3.15;1.75;;;;;;;4.91;100.00;96830.63;6104614;19;20349;-72
2023/12/10 01:27:15;;;;;;;4.80;1.80;;;;;;;4.92;100.00;96819.25;6105798;19;20013;-72
2023/12/10 01:29:16;;;;;;;3.25;2.30;;;;;;;4.95;100.00;96831.41;6104823;19;20363;-72
2023/12/10 01:31:17;;;;;;;6.10;2.08;;;;;;;5.03;100.00;96833.03;6105537;19;20348;-72
2023/12/10 01:33:17;;;;;;;4.65;2.00;;;;;;;5.13;100.00;96839.75;6106239;19;20006;-72
2023/12/10 01:35:17;;;;;;;4.25;2.25;;;;;;;5.14;100.00;96850.34;6103564;19;20003;-72
2023/12/10 01:37:18;;;;;;;11.93;2.83;;;;;;;5.25;100.00;96853.16;6105466;19;20019;-71
2023/12/10 01:39:19;;;;;;;7.50;2.28;;;;;;;5.31;100.00;96854.38;6104664;19;20010;-71
2023/12/10 01:41:20;;;;;;;5.82;2.85;;;;;;;5.34;100.00;96872.81;6105389;19;19999;-72
2023/12/10 01:43:20;;;;;;;8.70;2.72;;;;;;;5.35;100.00;96879.84;6105820;19;20007;-72
2023/12/10 01:45:21;;;;;;;5.05;2.88;;;;;;;5.40;100.00;96879.50;6104016;19;20078;-72
2023/12/10 01:47:21;;;;;;;5.90;2.15;;;;;;;5.45;100.00;96887.34;6105359;19;20007;-72
2023/12/10 01:49:23;;;;;;;7.07;2.35;;;;;;;5.49;100.00;96893.66;6094053;19;20370;-72
2023/12/10 01:51:24;;;;;;;4.93;2.20;;;;;;;5.57;100.00;96884.31;6103513;19;20003;-72
2023/12/10 01:53:25;;;;;;;8.25;2.35;;;;;;;5.61;100.00;96887.84;6105568;19;20484;-72
2023/12/10 01:55:25;;;;;;;5.75;1.92;;;;;;;5.68;100.00;96881.59;6104422;19;20006;-72
2023/12/10 01:57:30;;;;;;;8.48;3.00;;;;;;;5.71;100.00;96888.28;6103174;19;20176;-72
2023/12/10 01:59:31;;;;;;;7.57;2.90;;;;;;;5.70;100.00;96887.50;6103566;19;20487;-72
2023/12/10 02:01:32;;;;;;;3.45;2.45;;;;;;;5.71;100.00;96900.06;6104266;19;20405;-71
2023/12/10 02:03:33;;;;;;;4.68;2.33;;;;;;;5.82;100.00;96914.63;6103998;19;20007;-72
2023/12/10 02:05:33;;;;;;;3.83;2.40;;;;;;;5.86;100.00;96898.94;6103772;19;20006;-72
2023/12/10 02:07:34;;;;;;;5.00;2.58;;;;;;;5.81;100.00;96906.78;6102743;19;20352;-72
2023/12/10 02:09:34;;;;;;;8.05;2.92;;;;;;;5.71;100.00;96922.03;6101322;19;20322;-72
2023/12/10 02:11:35;;;;;;;7.53;2.85;;;;;;;5.68;100.00;96916.50;6103846;19;20085;-72
2023/12/10 02:13:37;;;;;;;3.85;2.67;;;;;;;5.69;100.00;96921.59;6103117;19;20058;-71
2023/12/10 02:15:37;;;;;;;6.57;1.90;;;;;;;5.69;100.00;96924.34;6103372;19;20042;-72
2023/12/10 02:17:37;;;;;;;7.13;2.13;;;;;;;5.70;100.00;96933.34;6102350;19;20002;-72
2023/12/10 02:19:38;;;;;;;3.30;1.83;;;;;;;5.61;100.00;96934.47;6101780;19;20361;-72
2023/12/10 02:21:44;;;;;;;3.60;1.73;;;;;;;5.51;100.00;96937.16;6102921;19;19998;-72
2023/12/10 02:23:59;;;;;;;8.90;1.98;;;;;;;5.45;100.00;96944.97;6103126;19;20003;-72
2023/12/10 02:25:59;;;;;;;5.65;1.88;;;;;;;5.45;100.00;96953.19;6103337;19;20462;-72
2023/12/10 02:28:01;;;;;;;6.15;1.98;;;;;;;5.41;100.00;96951.59;6099460;19;20035;-72
2023/12/10 02:30:01;;;;;;;4.50;1.90;;;;;;;5.39;100.00;96952.00;6101932;19;20386;-72
2023/12/10 02:32:02;;;;;;;4.40;1.98;;;;;;;5.40;100.00;96966.50;6102865;19;19998;-72
2023/12/10 02:34:02;;;;;;;8.52;1.90;;;;;;;5.36;100.00;96966.44;6102393;19;20440;-72
2023/12/10 02:36:03;;;;;;;4.38;2.00;;;;;;;5.40;100.00;96971.97;6100012;19;20010;-72
2023/12/10 02:38:04;;;;;;;9.27;1.90;;;;;;;5.39;100.00;96962.97;6101591;19;20026;-72
2023/12/10 02:40:05;;;;;;;5.03;1.85;;;;;;;5.42;100.00;96969.63;6101009;19;20353;-72
2023/12/10 02:42:06;;;;;;;9.93;2.20;;;;;;;5.49;100.00;96959.50;6103197;19;20463;-72
2023/12/10 02:44:06;;;;;;;7.95;1.88;;;;;;;5.48;100.00;96966.16;6101865;19;20011;-71
2023/12/10 02:46:07;;;;;;;5.78;2.10;;;;;;;5.39;100.00;96976.69;6100756;19;20548;-72
2023/12/10 02:48:07;;;;;;;3.80;1.83;;;;;;;5.33;100.00;96978.19;6100946;19;20015;-72
2023/12/10 02:50:08;;;;;;;7.20;2.10;;;;;;;5.37;100.00;96976.25;6095462;19;20007;-72
2023/12/10 02:52:08;;;;;;;7.57;2.08;;;;;;;5.27;100.00;96972.25;6086416;19;20609;-72
2023/12/10 02:54:09;;;;;;;9.85;2.90;;;;;;;5.34;100.00;96979.75;6088236;19;20200;-72
2023/12/10 02:56:09;;;;;;;13.50;2.55;;;;;;;5.40;100.00;96981.00;6087149;19;20747;-72
2023/12/10 02:58:10;;;;;;;12.05;3.78;;;;;;;5.30;100.00;96990.72;6087320;19;19998;-72
2023/12/10 03:00:15;;;;;;;12.13;2.70;;;;;;;5.27;100.00;96990.66;6086577;19;20700;-72
2023/12/10 03:02:16;;;;;;;8.90;2.65;;;;;;;5.31;100.00;96983.28;6089576;19;19999;-72
2023/12/10 03:04:16;;;;;;;11.52;2.90;;;;;;;5.37;100.00;96984.47;6088288;19;20027;-72
2023/12/10 03:06:16;;;;;;;7.43;2.45;;;;;;;5.38;100.00;96997.03;6090398;19;20662;-72
2023/12/10 03:08:17;;;;;;;12.95;3.33;;;;;;;5.44;100.00;96994.72;6088325;19;20002;-72
2023/12/10 03:10:17;;;;;;;14.18;3.25;;;;;;;5.39;100.00;96998.63;6088184;19;20328;-72
2023/12/10 03:12:18;;;;;;;6.00;1.98;;;;;;;5.31;100.00;97007.94;6088415;19;20007;-71
2023/12/10 03:14:18;;;;;;;8.80;2.67;;;;;;;5.25;100.00;96998.50;6088188;19;20014;-72
2023/12/10 03:16:18;;;;;;;13.27;3.72;;;;;;;5.34;100.00;96999.75;6088727;19;20030;-72
2023/12/10 03:18:19;;;;;;;17.05;2.97;;;;;;;5.33;100.00;97008.34;6089320;19;20465;-72
2023/12/10 03:20:19;;;;;;;11.38;2.70;;;;;;;5.24;100.00;97002.41;6087254;19;19999;-72
2023/12/10 03:22:20;;;;;;;11.10;3.03;;;;;;;5.28;100.00;96998.50;6088051;19;19995;-72
2023/12/10 03:24:20;;;;;;;12.52;2.42;;;;;;;5.28;100.00;97016.91;6087656;19;20105;-72
2023/12/10 03:26:20;;;;;;;14.65;2.45;;;;;;;5.34;100.00;96999.75;6088949;19;20447;-72
2023/12/10 03:28:21;;;;;;;17.38;2.78;;;;;;;5.47;100.00;97005.75;6088212;19;20026;-72
2023/12/10 03:30:21;;;;;;;17.92;3.45;;;;;;;5.46;100.00;97014.31;6085126;19;20022;-72
2023/12/10 03:32:23;;;;;;;16.67;3.33;;;;;;;5.43;100.00;97018.63;6088858;19;20098;-71
2023/12/10 03:34:25;;;;;;;12.45;3.38;;;;;;;5.46;100.00;97022.56;6087371;19;20716;-72
2023/12/10 03:36:25;;;;;;;10.10;3.13;;;;;;;5.40;100.00;97005.69;6088115;19;20581;-72
2023/12/10 03:38:25;;;;;;;10.52;2.67;;;;;;;5.29;100.00;97019.28;6088754;19;20018;-72
2023/12/10 03:40:26;;;;;;;13.05;3.53;;;;;;;5.33;100.00;97022.84;6087816;19;20007;-72
2023/12/10 03:42:26;;;;;;;12.40;2.83;;;;;;;5.32;100.00;97026.75;6086198;19;20026;-72
2023/12/10 03:44:26;;;;;;;13.43;3.70;;;;;;;5.35;100.00;97020.50;6087940;19;20360;-72
2023/12/10 03:46:27;;;;;;;12.85;3.20;;;;;;;5.33;100.00;97025.59;6088608;19;20018;-72
2023/12/10 03:48:27;;;;;;;12.30;2.80;;;;;;;5.33;100.00;97031.09;6088354;19;20012;-72
2023/12/10 03:50:28;;;;;;;10.05;2.75;;;;;;;5.37;100.00;97028.34;6093200;19;20372;-71
2023/12/10 03:52:28;;;;;;;16.08;4.20;;;;;;;5.30;100.00;97034.59;6102222;19;20042;-72
2023/12/10 03:54:28;;;;;;;16.25;2.95;;;;;;;5.35;100.00;97025.22;6101217;19;20010;-72
2023/12/10 03:56:29;;;;;;;11.43;3.10;;;;;;;5.36;100.00;97030.31;6101506;19;20534;-72
2023/12/10 03:58:29;;;;;;;16.70;3.00;;;;;;;5.34;100.00;97040.88;6102338;19;20422;-72
2023/12/10 04:00:30;;;;;;;11.18;2.65;;;;;;;5.46;100.00;97036.25;6100952;19;20081;-72
2023/12/10 04:02:30;;;;;;;9.50;2.65;;;;;;;5.43;100.00;97031.53;6102005;19;20034;-72
2023/12/10 04:04:31;;;;;;;9.10;3.15;;;;;;;5.40;100.00;97040.53;6101574;19;20098;-71
2023/12/10 04:06:31;;;;;;;11.43;2.72;;;;;;;5.40;100.00;97043.28;6102003;19;20014;-72
2023/12/10 04:08:32;;;;;;;9.27;2.28;;;;;;;5.41;100.00;97036.63;6101139;19;20066;-72
2023/12/10 04:10:32;;;;;;;11.55;2.90;;;;;;;5.40;100.00;97043.28;6100184;19;20494;-72
2023/12/10 04:12:32;;;;;;;9.77;2.83;;;;;;;5.48;100.00;97042.97;6102535;19;20031;-72
2023/12/10 04:14:33;;;;;;;10.85;2.47;;;;;;;5.45;100.00;97043.72;6100291;19;20017;-72
2023/12/10 04:16:33;;;;;;;9.52;2.53;;;;;;;5.43;100.00;97037.81;6102011;19;20006;-72
2023/12/10 04:18:35;;;;;;;10.50;2.60;;;;;;;5.48;100.00;97029.25;6101169;19;20078;-71
2023/12/10 04:20:36;;;;;;;11.93;3.53;;;;;;;5.49;100.00;97044.53;6100789;19;20018;-72
2023/12/10 04:22:36;;;;;;;12.82;3.30;;;;;;;5.51;100.00;97041.41;6100908;19;20010;-72
2023/12/10 04:24:37;;;;;;;10.02;2.17;;;;;;;5.50;100.00;97076.28;6101175;19;19994;-72
2023/12/10 04:26:37;;;;;;;8.63;2.88;;;;;;;5.46;100.00;97053.53;6100443;19;20018;-71
2023/12/10 04:28:38;;;;;;;5.15;2.17;;;;;;;5.40;100.00;97051.50;6101189;19;20470;-72
2023/12/10 04:30:39;;;;;;;4.88;2.05;;;;;;;5.33;100.00;97064.00;6100168;19;20002;-71
2023/12/10 04:32:40;;;;;;;8.55;2.53;;;;;;;5.33;100.00;97064.00;6101258;19;20358;-72
2023/12/10 04:34:40;;;;;;;13.30;2.03;;;;;;;5.28;100.00;97069.81;6100521;19;20010;-71
2023/12/10 04:36:41;;;;;;;8.60;2.30;;;;;;;5.29;100.00;97076.09;6100677;19;20023;-72
2023/12/10 04:38:41;;;;;;;12.85;2.80;;;;;;;5.41;100.00;97084.03;6101096;19;20333;-72
2023/12/10 04:40:43;;;;;;;4.15;1.85;;;;;;;5.36;100.00;97095.34;6099146;19;20084;-72
2023/12/10 04:42:43;;;;;;;7.88;2.15;;;;;;;5.27;100.00;97092.13;6099753;19;20033;-71
2023/12/10 04:44:43;;;;;;;7.45;2.63;;;;;;;5.24;100.00;97095.63;6100196;19;20040;-71
2023/12/10 04:46:44;;;;;;;13.65;3.08;;;;;;;5.20;100.00;97105.75;6100457;19;20415;-72
2023/12/10 04:48:44;;;;;;;12.68;2.95;;;;;;;5.19;100.00;97109.66;6100469;19;20011;-72
2023/12/10 04:50:45;;;;;;;12.63;2.30;;;;;;;5.18;100.00;97114.38;6098761;19;20002;-72
2023/12/10 04:52:45;;;;;;;11.75;3.33;;;;;;;5.17;100.00;97112.78;6100683;19;20396;-72
2023/12/10 04:54:46;;;;;;;13.35;2.38;;;;;;;5.14;100.00;97104.53;6099536;19;20718;-72
2023/12/10 04:56:46;;;;;;;15.77;4.00;;;;;;;5.12;100.00;97107.63;6101023;19;20006;-72
2023/12/10 04:58:47;;;;;;;11.93;2.90;;;;;;;5.04;100.00;97128.69;6100200;19;20017;-72
2023/12/10 05:00:47;;;;;;;8.38;2.80;;;;;;;5.00;100.00;97129.84;6099339;19;20516;-72
2023/12/10 05:02:50;;;;;;;12.10;2.92;;;;;;;4.99;100.00;97136.50;6099443;19;20007;-72
2023/12/10 05:04:51;;;;;;;16.15;3.03;;;;;;;5.00;100.00;97124.34;6100022;19;20458;-72
2023/12/10 05:06:51;;;;;;;13.25;2.95;;;;;;;5.02;100.00;97133.78;6099710;19;20410;-72
2023/12/10 05:08:51;;;;;;;12.20;3.30;;;;;;;4.97;100.00;97136.09;6099307;19;20467;-72
2023/12/10 05:10:52;;;;;;;23.60;4.68;;;;;;;5.04;100.00;97136.13;6099057;19;20361;-71
2023/12/10 05:12:52;;;;;;;14.10;3.22;;;;;;;4.98;100.00;97132.97;6100671;19;20050;-72
2023/12/10 05:14:53;;;;;;;12.35;2.67;;;;;;;4.94;100.00;97123.88;6099498;19;20010;-72
2023/12/10 05:16:53;;;;;;;12.57;3.25;;;;;;;4.92;100.00;97134.44;6099535;19;20470;-72
2023/12/10 05:18:53;;;;;;;12.23;3.03;;;;;;;5.06;100.00;97131.88;6098874;19;20006;-72
2023/12/10 05:20:54;;;;;;;13.13;2.85;;;;;;;5.16;100.00;97127.69;6100448;19;20747;-71
2023/12/10 05:22:54;;;;;;;10.90;3.53;;;;;;;5.15;100.00;97142.56;6098377;19;20007;-72
2023/12/10 05:24:54;;;;;;;11.35;2.83;;;;;;;5.15;100.00;97148.03;6098603;19;20550;-72
2023/12/10 05:26:55;;;;;;;16.05;3.10;;;;;;;5.10;100.00;97147.56;6099364;19;20291;-72
2023/12/10 05:28:55;;;;;;;12.43;3.97;;;;;;;5.13;100.00;97147.63;6098548;19;20020;-72
2023/12/10 05:30:56;;;;;;;16.05;4.07;;;;;;;5.08;100.00;97156.19;6099334;19;19998;-72
2023/12/10 05:32:56;;;;;;;18.33;3.70;;;;;;;5.18;100.00;97155.50;6094024;19;20011;-72
2023/12/10 05:34:56;;;;;;;16.52;3.28;;;;;;;5.33;100.00;97170.94;6095911;19;20003;-71
2023/12/10 05:36:57;;;;;;;16.58;3.97;;;;;;;5.39;100.00;97168.66;6091948;19;20372;-71
2023/12/10 05:38:58;;;;;;;12.82;2.65;;;;;;;5.40;100.00;97167.50;6097326;19;20053;-72
2023/12/10 05:40:58;;;;;;;15.68;3.28;;;;;;;5.48;100.00;97163.66;6095969;19;20014;-71
2023/12/10 05:42:58;;;;;;;16.75;3.78;;;;;;;5.52;100.00;97180.16;6098508;19;20006;-72
2023/12/10 05:44:59;;;;;;;14.85;2.97;;;;;;;5.44;100.00;97184.00;6091719;19;20459;-72
2023/12/10 05:46:59;;;;;;;10.48;2.97;;;;;;;5.41;100.00;97188.28;6096092;19;20006;-72
2023/12/10 05:49:00;;;;;;;15.05;3.28;;;;;;;5.40;100.00;97189.44;6093417;19;20627;-72
2023/12/10 05:51:01;;;;;;;9.75;3.10;;;;;;;5.40;100.00;97185.91;6094818;19;20393;-72
2023/12/10 05:53:03;;;;;;;16.63;2.90;;;;;;;5.39;100.00;97182.38;6095070;19;20082;-71
2023/12/10 05:55:04;;;;;;;13.38;2.97;;;;;;;5.39;100.00;97184.34;6102754;19;20014;-71
2023/12/10 05:57:05;;;;;;;16.42;3.20;;;;;;;5.38;100.00;97191.78;6102944;19;20007;-72
2023/12/10 05:59:05;;;;;;;5.88;2.13;;;;;;;5.39;100.00;97189.81;6102324;19;20329;-72
2023/12/10 06:01:05;;;;;;;10.90;2.97;;;;;;;5.36;100.00;97197.63;6104031;19;20089;-72
2023/12/10 06:03:06;;;;;;;12.70;1.95;;;;;;;5.54;100.00;97206.03;6104321;19;20344;-72
2023/12/10 06:05:06;;;;;;;9.57;2.58;;;;;;;5.54;100.00;97222.50;6103306;19;20010;-72
2023/12/10 06:07:07;;;;;;;12.02;2.85;;;;;;;5.59;100.00;97211.19;6103301;19;20015;-71
2023/12/10 06:09:09;;;;;;;13.85;2.75;;;;;;;5.61;100.00;97221.78;6102659;19;20110;-72
2023/12/10 06:11:09;;;;;;;9.90;2.67;;;;;;;5.69;100.00;97215.22;6103815;19;20006;-72
2023/12/10 06:13:10;;;;;;;15.38;2.78;;;;;;;5.63;100.00;97212.03;6097618;19;20006;-72
2023/12/10 06:15:10;;;;;;;8.50;2.65;;;;;;;5.63;100.00;97227.72;6098256;19;20010;-72
2023/12/10 06:17:11;;;;;;;6.95;1.90;;;;;;;5.68;100.00;97221.09;6102844;19;20475;-71
2023/12/10 06:19:11;;;;;;;11.60;2.22;;;;;;;5.70;100.00;97225.03;6102224;19;20402;-71
2023/12/10 06:21:12;;;;;;;13.70;2.90;;;;;;;5.69;100.00;97226.19;6101675;19;20526;-71
2023/12/10 06:23:13;;;;;;;8.85;2.13;;;;;;;5.75;100.00;97216.47;6103494;19;20018;-71
2023/12/10 06:25:13;;;;;;;5.32;2.05;;;;;;;5.73;100.00;97234.47;6101830;19;20014;-71
2023/12/10 06:27:13;;;;;;;7.38;1.83;;;;;;;5.78;100.00;97248.63;6103188;19;19998;-71
2023/12/10 06:29:15;;;;;;;13.73;2.42;;;;;;;5.78;100.00;97236.88;6102535;19;20009;-72
2023/12/10 06:31:15;;;;;;;10.82;2.53;;;;;;;5.82;100.00;97245.94;6102765;19;20002;-72
2023/12/10 06:33:16;;;;;;;14.10;3.00;;;;;;;5.77;100.00;97251.75;6102621;19;20418;-71
2023/12/10 06:35:16;;;;;;;9.05;2.70;;;;;;;5.75;100.00;97260.38;6103269;19;20467;-71
2023/12/10 06:37:17;;;;;;;11.90;2.78;;;;;;;5.77;100.00;97254.50;6102656;19;20006;-72
2023/12/10 06:39:17;;;;;;;11.13;2.33;;;;;;;5.75;100.00;97259.59;6102011;19;20013;-72
2023/12/10 06:41:17;;;;;;;9.15;1.92;;;;;;;5.74;100.00;97253.31;6102086;19;20397;-72
2023/12/10 06:43:18;;;;;;;12.38;2.75;;;;;;;5.83;100.00;97258.50;6103254;19;20007;-72
2023/12/10 06:45:19;;;;;;;13.68;2.78;;;;;;;5.83;100.00;97256.53;6101913;19;20013;-72
2023/12/10 06:47:20;;;;;;;11.20;2.22;;;;;;;5.85;100.00;97242.44;6102634;19;20011;-72
2023/12/10 06:49:20;;;;;;;7.90;2.15;;;;;;;5.80;100.00;97248.28;6091586;19;20460;-72
2023/12/10 06:51:21;;;;;;;10.85;1.75;;;;;;;5.75;100.00;97263.13;6098171;19;20021;-73
2023/12/10 06:53:22;;;;;;;8.88;2.70;;;;;;;5.75;100.00;97257.63;6102349;19;20010;-72
2023/12/10 06:55:22;;;;;;;9.30;2.78;;;;;;;5.76;100.00;97267.44;6100581;19;20002;-72
2023/12/10 06:57:23;;;;;;;9.48;2.58;;;;;;;5.82;100.00;97267.91;6102551;19;20077;-71
2023/12/10 06:59:23;;;;;;;11.95;3.35;;;;;;;5.86;100.00;97266.75;6099613;19;20013;-71
2023/12/10 07:01:24;;;;;;;9.43;2.88;;;;;;;5.94;100.00;97267.66;6100937;19;20567;-72
2023/12/10 07:03:24;;;;;;;11.48;2.95;;;;;;;5.86;100.00;97269.50;6102534;19;20086;-72
2023/12/10 07:05:25;;;;;;;8.40;2.38;;;;;;;5.95;100.00;97280.22;6101188;19;20359;-72
2023/12/10 07:07:25;;;;;;;11.20;2.25;;;;;;;5.97;100.00;97269.66;6099522;19;20007;-72
2023/12/10 07:09:25;;;;;;;7.07;2.20;;;;;;;5.92;100.00;97278.22;6101161;19;20042;-71
2023/12/10 07:11:26;;;;;;;9.63;2.75;;;;;;;6.00;100.00;97290.06;6101731;19;20173;-71
2023/12/10 07:13:26;;;;;;;9.55;2.72;;;;;;;6.05;100.00;97290.53;6102436;19;20007;-72
2023/12/10 07:15:27;;;;;;;10.30;2.42;;;;;;;5.96;100.00;97305.72;6100126;19;20337;-72
2023/12/10 07:17:27;;;;;;;8.95;2.10;;;;;;;5.90;100.00;97289.59;6103298;19;20007;-72
2023/12/10 07:19:27;;;;;;;11.07;2.95;;;;;;;5.88;100.00;97286.41;6099920;19;20007;-72
2023/12/10 07:21:28;;;;;;;7.65;1.80;;;;;;;5.90;100.00;97300.56;6101844;19;20010;-71
2023/12/10 07:23:28;;;;;;;8.38;1.95;;;;;;;5.95;100.00;97285.69;6102954;19;20010;-71
2023/12/10 07:25:29;;;;;;;6.57;1.70;;;;;;;5.91;100.00;97276.66;6101368;19;20022;-72
2023/12/10 07:27:29;;;;;;;4.97;1.80;;;;;;;5.92;100.00;97275.47;6102144;19;20356;-72
2023/12/10 07:29:29;;;;;;;10.50;2.30;;;;;;;5.95;100.00;97280.22;6100126;19;20033;-72
2023/12/10 07:31:30;;;;;;;9.32;2.10;;;;;;;5.91;100.00;97279.41;6102114;19;20259;-71
2023/12/10 07:33:30;;;;;;;6.65;1.55;;;;;;;5.87;100.00;97278.53;6102314;19;20010;-72
2023/12/10 07:35:31;;;;;;;4.65;1.48;;;;;;;5.81;100.00;97283.59;6101748;19;20007;-72
2023/12/10 07:37:31;;;;;;;9.88;1.85;;;;;;;5.85;100.00;97284.41;6103023;19;20027;-72
2023/12/10 07:39:31;;;;;;;12.63;2.47;;;;;;;5.88;100.00;97280.13;6098893;19;20013;-72
2023/12/10 07:41:32;;;;;;;5.65;1.70;;;;;;;6.03;100.00;97292.06;6102239;19;20751;-71
2023/12/10 07:43:32;;;;;;;4.38;1.58;;;;;;;6.07;100.00;97295.66;6102378;19;20091;-72
2023/12/10 07:45:33;;;;;;;12.18;2.13;;;;;;;6.09;100.00;97294.09;6102154;19;20070;-72
2023/12/10 07:47:33;;;;;;;11.10;2.25;;;;;;;6.01;100.00;97295.19;6102496;19;20018;-71
2023/12/10 07:49:33;;;;;;;10.13;1.90;;;;;;;6.04;100.00;97318.34;6095300;19;19998;-72
2023/12/10 07:51:34;;;;;;;14.85;2.70;;;;;;;5.99;100.00;97326.94;6087903;19;20029;-72
2023/12/10 07:53:34;;;;;;;11.18;2.00;;;;;;;6.00;100.00;97331.25;6087878;19;20001;-72
2023/12/10 07:55:34;;;;;;;4.32;1.60;;;;;;;6.05;100.00;97334.47;6087395;19;20539;-71
2023/12/10 07:57:35;;;;;;;5.13;2.15;;;;;;;6.05;100.00;97347.41;6086111;19;21028;-72
2023/12/10 07:59:35;;;;;;;10.18;1.60;;;;;;;6.09;100.00;97348.22;6085613;19;20086;-72
2023/12/10 08:01:35;;;;;;;5.53;1.77;;;;;;;6.02;100.00;97353.63;6086180;19;20037;-71
2023/12/10 08:03:36;;;;;;;8.13;2.45;;;;;;;6.06;100.00;97360.75;6086230;19;20009;-72
2023/12/10 08:05:36;;;;;;;8.25;1.50;;;;;;;6.01;100.00;97372.06;6086713;19;20002;-71
2023/12/10 08:07:37;;;;;;;5.60;1.50;;;;;;;5.98;100.00;97352.81;6086072;19;19999;-72
2023/12/10 08:09:37;;;;;;;7.72;1.88;;;;;;;5.99;100.00;97357.94;6086138;19;20009;-72
2023/12/10 08:11:38;;;;;;;8.20;2.10;;;;;;;6.00;100.00;97358.72;6087012;19;20090;-72
2023/12/10 08:13:38;;;;;;;8.80;2.00;;;;;;;6.01;100.00;97357.56;6085266;19;20315;-72
2023/12/10 08:15:39;;;;;;;8.77;1.98;;;;;;;5.98;100.00;97372.03;6084995;19;20397;-72
2023/12/10 08:17:39;;;;;;;10.48;2.10;;;;;;;5.99;100.00;97368.13;6086123;19;20090;-71
2023/12/10 08:19:40;;;;;;;8.43;2.40;;;;;;;6.10;100.00;97380.00;6085291;19;20359;-72
2023/12/10 08:21:40;;;;;;;3.80;1.40;;;;;;;6.15;100.00;97371.44;6087226;19;20013;-72
2023/12/10 08:23:40;;;;;;;5.03;1.88;;;;;;;6.16;100.00;97379.31;6087538;19;20006;-72
2023/12/10 08:25:41;;;;;;;6.80;1.70;;;;;;;6.16;100.00;97367.53;6086642;19;20545;-71
2023/12/10 08:27:42;;;;;;;9.35;2.28;;;;;;;6.13;100.00;97387.53;6087903;19;20548;-72
2023/12/10 08:29:42;;;;;;;5.55;1.60;;;;;;;6.11;100.00;97385.13;6085827;19;19999;-72
2023/12/10 08:31:42;;;;;;;12.00;2.50;;;;;;;6.17;100.00;97383.63;6085831;19;20034;-71
2023/12/10 08:33:45;;;;;;;9.10;1.80;;;;;;;6.17;100.00;97378.13;6086426;19;19999;-72
2023/12/10 08:35:45;;;;;;;;;;;;;;;6.12;100.00;97383.97;6087391;19;20010;-72
2023/12/10 08:37:46;;;;;;;5.43;2.22;;;;;;;6.07;100.00;97392.53;6086408;19;20316;-72
2023/12/10 08:39:48;;;;;;;3.70;1.80;;;;;;;6.09;100.00;97397.66;6085862;19;20008;-72
2023/12/10 08:41:48;;;;;;;5.07;1.75;;;;;;;6.09;100.00;97390.22;6086873;19;20019;-72
2023/12/10 08:43:49;;;;;;;5.03;1.90;;;;;;;6.11;100.00;97398.06;6086098;19;20669;-72
2023/12/10 08:45:49;;;;;;;9.68;2.50;;;;;;;6.11;100.00;97406.31;6084444;19;20086;-72
2023/12/10 08:47:49;;;;;;;4.13;1.65;;;;;;;6.05;100.00;97405.06;6086081;19;20006;-72
2023/12/10 08:49:50;;;;;;;7.30;2.08;;;;;;;6.01;100.00;97413.25;6087530;19;20083;-72
2023/12/10 08:51:51;;;;;;;5.05;2.13;;;;;;;6.03;100.00;97415.63;6100166;19;20002;-72
2023/12/10 08:53:51;;;;;;;7.55;1.73;;;;;;;6.05;100.00;97414.09;6098457;19;20521;-71
2023/12/10 08:55:52;;;;;;;7.47;2.00;;;;;;;6.04;100.00;97418.00;6099065;19;22709;-71
2023/12/10 08:57:52;;;;;;;5.00;1.42;;;;;;;5.99;100.00;97425.78;6099692;19;20046;-72
2023/12/10 08:59:55;;;;;;;3.78;1.40;;;;;;;6.01;100.00;97423.44;6095598;19;20368;-72
2023/12/10 09:01:55;;;;;;;;;;;;;;;5.97;100.00;97426.16;6098667;19;20002;-72
2023/12/10 09:03:55;;;;;;;12.32;1.58;;;;;;;5.95;100.00;97428.47;6097791;19;19938;-72
2023/12/10 09:05:58;;;;;;;8.13;1.40;;;;;;;5.85;100.00;97440.06;6098363;19;20475;-72
2023/12/10 09:07:58;;;;;;;4.35;1.60;;;;;;;5.82;100.00;97441.63;6099644;19;19999;-72
2023/12/10 09:09:59;;;;;;;6.47;1.50;;;;;;;5.82;100.00;97449.84;6098666;19;20009;-72
2023/12/10 09:12:00;;;;;;;4.95;1.58;;;;;;;5.79;100.00;97458.84;6099453;19;20073;-72
2023/12/10 09:14:00;;;;;;;6.18;1.50;;;;;;;5.80;100.00;97443.94;6097117;19;20003;-72
2023/12/10 09:16:00;;;;;;;7.20;2.30;;;;;;;5.74;100.00;97453.66;6099308;19;20009;-72
2023/12/10 09:18:02;;;;;;;6.30;2.03;;;;;;;5.82;100.00;97469.06;6099458;19;20003;-72
2023/12/10 09:20:04;;;;;;;6.03;2.20;;;;;;;5.84;100.00;97472.22;6095332;19;20038;-72
2023/12/10 09:22:04;;;;;;;4.47;1.48;;;;;;;5.81;100.00;97469.44;6099246;19;20025;-72
2023/12/10 09:24:05;;;;;;;4.28;1.50;;;;;;;5.80;100.00;97473.34;6099214;19;20074;-72
2023/12/10 09:26:06;;;;;;;6.57;1.83;;;;;;;5.77;100.00;97471.34;6098867;19;19998;-72